Date,TemperatureHighF,TemperatureAvgF,TemperatureLowF,DewpointHighF,DewpointAvgF,DewpointLowF,HumidityHigh,HumidityAvg,HumidityLow,PressureMaxIn,PressureMinIn,WindSpeedMaxMPH,WindSpeedAvgMPH,GustSpeedMaxMPH,PrecipitationSumIn
2013-3-1,52,46,33,38,34,31,93,65,47,30.08,29.99,11,1,11,0.00
2013-3-2,52,39,28,34,29,26,94,70,37,30.11,29.99,20,1,20,0.00
2013-3-3,51,39,28,32,28,24,92,67,38,30.18,30.05,14,1,14,0.00
2013-3-4,62,42,24,35,28,21,94,65,24,30.24,30.14,12,1,12,0.00
2013-3-5,70,59,36,62,53,33,94,84,65,30.14,29.94,21,2,21,0.08
2013-3-6,58,48,37,52,33,26,92,60,31,30.20,30.03,18,2,20,0.00
2013-3-7,65,45,28,42,33,26,94,69,30,30.29,30.18,10,1,10,0.00
2013-3-8,72,49,28,42,35,27,94,65,20,30.28,30.16,10,0,10,0.00
2013-3-9,71,53,34,47,38,31,94,64,25,30.28,30.17,10,1,10,0.00
2013-3-10,73,60,49,55,50,44,91,71,48,30.19,30.08,22,2,22,0.00
2013-3-11,71,62,49,62,58,47,93,86,70,30.10,29.84,21,3,21,0.13
2013-3-12,65,55,45,63,47,39,94,76,42,30.12,29.82,14,2,15,0.53
2013-3-13,69,53,33,43,35,26,94,58,26,30.26,30.11,16,1,16,0.00
2013-3-14,63,47,31,33,28,19,89,54,19,30.38,30.24,13,1,15,0.00
2013-3-15,74,51,30,42,35,28,94,62,27,30.31,30.16,14,1,17,0.00
2013-3-16,79,58,36,60,49,35,94,76,41,30.19,30.03,14,1,14,0.00
2013-3-17,70,58,48,64,56,47,95,91,78,30.10,30.01,14,1,14,0.42
2013-3-18,76,66,60,68,63,58,95,89,71,30.03,29.87,16,2,16,0.02
2013-3-19,79,66,57,64,60,55,94,83,57,30.04,29.89,16,1,18,0.89
2013-3-20,70,59,45,56,42,36,94,57,32,30.06,29.89,14,2,14,0.00
2013-3-21,67,50,36,39,32,20,93,58,17,30.03,29.92,12,1,13,0.00
2013-3-22,69,55,38,43,34,26,90,51,22,30.05,29.92,13,2,15,0.00
2013-3-23,66,61,57,64,55,40,95,83,47,29.97,29.74,11,1,12,3.66
2013-3-24,84,73,65,71,65,50,95,78,42,29.75,29.54,20,2,20,0.65
2013-3-25,65,54,43,50,31,19,68,44,20,30.12,29.75,18,3,21,0.00
2013-3-26,55,45,32,32,27,24,81,51,32,30.31,30.12,17,2,17,0.00
2013-3-27,61,43,27,33,28,25,93,61,26,30.39,30.25,13,1,13,0.00
2013-3-28,68,48,28,43,33,26,94,63,24,30.35,30.23,12,1,14,0.00
2013-3-29,74,54,33,46,38,31,94,65,24,30.35,30.22,16,1,16,0.00
2013-3-30,73,56,36,59,47,35,95,76,48,30.27,30.13,14,1,16,0.00
2013-3-31,76,65,53,64,60,50,94,83,63,30.13,29.97,18,2,18,0.00